Monday, January 21, 2019, 5:46 PM EST
Back to Local

KBGR, Bangor Int'l Airport

Location: Bangor, ME, United States Lat: 44.8
Local Time: 5:46 PM EST (22:46 GMT) Lon: -68.817
Time Zone: US/Eastern Elev: 193 ft

Show me the last for .
Show Decoded

2019-01-21 16:53 METAR KBGR 212153Z 31014G22KT 8SM -SN OVC075 M16/M22 A2973 RMK AO2 SNB00 SLP073
                 T11611217 PNO =
2019-01-21 15:53 METAR KBGR 212053Z 30014G21KT 10SM FEW050 OVC070 M16/M21 A2970 RMK AO2 SLP063
                 6//// T11561211 53034 PNO =
2019-01-21 14:53 METAR KBGR 211953Z 32014KT 10SM FEW050 OVC070 M14/M20 A2965 RMK AO2 SLP047
                 T11441200 PNO =
2019-01-21 13:53 METAR KBGR 211853Z 32016KT 10SM OVC070 M14/M20 A2962 RMK AO2 PK WND 32027/1756
                 SLP037 T11441200 PNO =
2019-01-21 12:53 METAR KBGR 211753Z COR 31017G24KT 10SM FEW049 OVC065 M14/M21 A2960 RMK AO2
                 SLP029 4/009 6//// T11391206 11128 21139 51011 PNO =
2019-01-21 11:53 METAR KBGR 211653Z 32019G25KT 9SM OVC065 M13/M21 A2960 RMK AO2 SLP028 T11331206
                 PNO =
2019-01-21 10:53 METAR KBGR 211553Z 31011G19KT 9SM OVC060 M13/M20 A2959 RMK AO2 SLP026 T11331200
                 PNO =
2019-01-21 09:53 METAR KBGR 211453Z 31013KT 10SM OVC060 M13/M19 A2957 RMK AO2 PK WND 31026/1417
                 SNE36 SLP018 6//// T11331189 51036 PNO =
2019-01-21 08:53 METAR KBGR 211353Z 31017G21KT 4SM -SN OVC060 M13/M18 A2954 RMK AO2 SLP009
                 T11331183 PNO =
2019-01-21 07:53 METAR KBGR 211253Z 31014KT 6SM -SN OVC055 M13/M17 A2951 RMK AO2 SLP997 T11281172
                 PNO $ =
2019-01-21 06:53 METAR KBGR 211153Z 31015KT 8SM -SN BLSN OVC041 M13/M18 A2946 RMK AO2 SLP982
                 4/009 6//// 7//// T11281178 11100 21128 51023 PNO $ =
2019-01-21 05:53 METAR KBGR 211053Z 31012KT 9SM -SN OVC036 M12/M18 A2944 RMK AO2 SNB47 SLP976
                 T11221178 PNO $ =
2019-01-21 04:53 METAR KBGR 210953Z 30013G21KT 10SM OVC036 M12/M17 A2942 RMK AO2 SLP967 T11171167
                 PNO $ =
2019-01-21 03:53 METAR KBGR 210853Z 31012G20KT 10SM OVC036 M11/M16 A2939 RMK AO2 SLP959 6////
                 T11061161 51030 PNO $ =
2019-01-21 02:53 METAR KBGR 210753Z 31010KT 10SM OVC035 M11/M16 A2937 RMK AO2 SLP950 T11061156
                 PNO $ =
2019-01-21 01:53 METAR KBGR 210653Z 31009KT 10SM OVC032 M11/M16 A2934 RMK AO2 SLP942 T11061156
                 PNO $ =
2019-01-21 00:53 METAR KBGR 210553Z 31012KT 10SM OVC029 M11/M16 A2930 RMK AO2 SLP929 4/009 6////
                 T11111156 11106 21122 53003 PNO $ =
2019-01-20 23:53 METAR KBGR 210453Z 31010KT 10SM OVC029 M11/M16 A2931 RMK AO2 SLP929 T11111156
                 411061172 PNO $ =
2019-01-20 22:53 METAR KBGR 210353Z 32013KT 7SM OVC026 M12/M15 A2929 RMK AO2 SNE23 SLP925
                 T11171150 PNO $ =
2019-01-20 22:14 METAR KBGR 210314Z 31012KT 4SM -SN BR OVC023 M12/M14 A2929 RMK AO2 T11171144 PNO
                 $ =
2019-01-20 21:53 METAR KBGR 210253Z 31010KT 2 1/2SM -SN BR OVC023 M12/M14 A2930 RMK AO2 SLP926
                 6//// T11171144 53000 PNO $ =
2019-01-20 21:31 METAR KBGR 210231Z 32011KT 2 1/2SM -SN BR SCT012 OVC023 M12/M14 A2928 RMK AO2
                 T11171139 PNO $ =
2019-01-20 21:07 METAR KBGR 210207Z 31008KT 3/4SM R15/6000VP6000FT -SN BR BKN013 OVC022 M11/M13
                 A2927 RMK AO2 SFC VIS 1 T11111133 PNO $ =
2019-01-20 20:53 METAR KBGR 210153Z 31009KT 3/4SM R15/4000VP6000FT -SN BR FEW015 OVC022 M11/M13
                 A2927 RMK AO2 WSHFT 0051 PLB18E43 SLP918 T11111128 PNO $ =
2019-01-20 20:49 METAR KBGR 210149Z 32010KT 3/4SM R15/4000V5500FT -SN BR FEW015 OVC022 M11/M13
                 A2927 RMK AO2 WSHFT 0051 SFC VIS 1 PLB18E43 PNO $ =
2019-01-20 20:18 METAR KBGR 210118Z 33013KT 3/4SM R15/P6000FT -SNPL BR BKN015 OVC022 M11/M13
                 A2928 RMK AO2 WSHFT 0051 SFC VIS 1 PLB18 T11111128 PNO $ =
2019-01-20 20:11 METAR KBGR 210111Z 33011KT 3/4SM R15/P6000FT -SN BR BKN013 OVC022 M11/M13 A2928
                 RMK AO2 WSHFT 0051 SFC VIS 1 T11111128 PNO $ =
2019-01-20 19:53 METAR KBGR 210053Z 31013G17KT 3/4SM R15/5500VP6000FT -SN BR VV010 M12/M13 A2929
                 RMK AO2 PLE29 SLP925 T11171133 PNO $ =
2019-01-20 19:35 METAR KBGR 210035Z 32011KT 3/4SM R15/4000VP6000FT -SN BR BKN014 OVC019 M12/M13
                 A2930 RMK AO2 PLE29 T11171133 PNO $ =
2019-01-20 19:26 METAR KBGR 210026Z 34012KT 3/4SM R15/6000VP6000FT -SNPL BR VV016 M12/M13 A2929
                 RMK AO2 T11171133 PNO $ =
2019-01-20 19:01 METAR KBGR 210001Z 34015G20KT 3/4SM R15/6000VP6000FT -SNPL BR BKN010 OVC018
                 M12/M14 A2930 RMK AO2 T11221144 PNO $ =
2019-01-20 18:53 METAR KBGR 202353Z 34013G21KT 3/4SM R15/5500V6000FT -SNPL BR VV009 M12/M14 A2930
                 RMK AO2 SLP929 4/009 6//// T11221144 11122 21144 55012 PNO $ =
2019-01-20 18:25 METAR KBGR 202325Z 33013KT 3/4SM R15/5000VP6000FT -SNPL BR VV009 M13/M15 A2930
                 RMK AO2 SFC VIS 1 T11281150 PNO $ =
2019-01-20 18:14 METAR KBGR 202314Z 33015KT 1SM R15/5000V5500FT -SNPL BR BKN010 OVC015 M13/M16
                 A2930 RMK AO2 T11331156 PNO $ =
2019-01-20 17:53 METAR KBGR 202253Z 34017KT 1 1/4SM -SNPL BR OVC015 M13/M16 A2930 RMK AO2 SLP927
                 T11331156 PNO $ =

Support USWX by starting your Amazon purchase here.